createdAt,value
2023-04-17T00:00:37.883Z,26.10
2023-04-17T00:03:06.593Z,26.83
2023-04-17T00:05:34.999Z,26.30
2023-04-17T00:08:03.493Z,25.33
2023-04-17T00:10:31.967Z,25.67
2023-04-17T00:13:01.707Z,26.40
2023-04-17T00:15:29.902Z,25.97
2023-04-17T00:17:58.030Z,26.37
2023-04-17T00:20:26.257Z,25.60
2023-04-17T00:22:54.581Z,26.73
2023-04-17T00:25:22.724Z,26.70
2023-04-17T00:27:51.057Z,26.70
2023-04-17T00:30:20.940Z,27.70
2023-04-17T00:32:49.311Z,27.60
2023-04-17T00:35:17.906Z,29.00
2023-04-17T00:37:46.052Z,28.73
2023-04-17T00:40:15.596Z,28.77
2023-04-17T00:42:43.673Z,28.77
2023-04-17T00:45:12.367Z,28.30
2023-04-17T00:47:41.958Z,29.53
2023-04-17T00:50:11.242Z,29.10
2023-04-17T00:52:39.382Z,29.87
2023-04-17T00:55:10.934Z,29.60
2023-04-17T00:57:38.984Z,28.50
2023-04-17T01:00:09.716Z,28.07
2023-04-17T01:02:38.619Z,27.50
2023-04-17T01:05:09.074Z,28.37
2023-04-17T01:07:37.821Z,29.33
2023-04-17T01:10:06.574Z,28.40
2023-04-17T01:12:34.931Z,29.03
2023-04-17T01:15:02.994Z,27.33
2023-04-17T01:17:31.394Z,27.77
2023-04-17T01:19:59.814Z,28.20
2023-04-17T01:22:29.275Z,29.00
2023-04-17T01:24:58.924Z,28.40
2023-04-17T01:27:27.341Z,29.63
2023-04-17T01:29:55.752Z,28.87
2023-04-17T01:32:24.383Z,29.70
2023-04-17T01:34:52.501Z,28.83
2023-04-17T01:37:20.522Z,28.93
2023-04-17T01:39:48.835Z,28.50
2023-04-17T01:42:18.572Z,30.53
2023-04-17T01:44:46.716Z,29.43
2023-04-17T01:47:14.895Z,30.80
2023-04-17T01:49:42.988Z,30.90
2023-04-17T01:52:11.100Z,30.33
2023-04-17T01:54:39.362Z,30.37
2023-04-17T01:57:07.438Z,31.70
2023-04-17T01:59:38.021Z,31.83
2023-04-17T02:02:06.430Z,31.83
2023-04-17T02:04:34.938Z,31.90
2023-04-17T02:07:03.173Z,31.03
2023-04-17T02:09:31.352Z,30.93
2023-04-17T02:11:59.425Z,32.23
2023-04-17T02:14:27.611Z,32.07
2023-04-17T02:16:57.237Z,31.87
2023-04-17T02:19:25.680Z,32.60
2023-04-17T02:21:53.759Z,31.17
2023-04-17T02:24:22.070Z,31.57
2023-04-17T02:26:50.096Z,31.73
2023-04-17T02:29:18.285Z,30.30
2023-04-17T02:31:46.625Z,30.87
2023-04-17T02:34:17.027Z,31.10
2023-04-17T02:36:45.158Z,30.87
2023-04-17T02:39:13.344Z,29.47
2023-04-17T02:41:41.671Z,29.47
2023-04-17T02:44:10.110Z,28.93
2023-04-17T02:46:38.451Z,29.43
2023-04-17T02:49:06.872Z,29.70
2023-04-17T02:51:36.628Z,28.13
2023-04-17T02:54:04.717Z,28.87
2023-04-17T02:56:32.880Z,29.77
2023-04-17T02:59:01.132Z,28.43
2023-04-17T03:01:30.186Z,28.23
2023-04-17T03:03:59.024Z,28.73
2023-04-17T03:06:27.660Z,28.87
2023-04-17T03:08:57.423Z,29.43
2023-04-17T03:11:25.638Z,28.80
2023-04-17T03:13:55.302Z,30.30
2023-04-17T03:16:23.651Z,30.10
2023-04-17T03:18:51.775Z,30.20
2023-04-17T03:21:19.854Z,29.03
2023-04-17T03:23:47.912Z,30.33
2023-04-17T03:26:18.818Z,29.63
2023-04-17T03:28:46.804Z,29.07
2023-04-17T03:31:15.333Z,29.20
2023-04-17T03:33:43.623Z,28.30
2023-04-17T03:36:11.966Z,29.57
2023-04-17T03:38:39.982Z,27.83
2023-04-17T03:41:08.294Z,28.37
2023-04-17T03:43:38.177Z,28.50
2023-04-17T03:46:06.944Z,28.10
2023-04-17T03:48:35.418Z,28.17
2023-04-17T03:51:04.687Z,26.30
2023-04-17T03:53:32.863Z,26.73
2023-04-17T03:56:01.728Z,26.13
2023-04-17T03:58:29.938Z,26.83
2023-04-17T04:01:02.317Z,27.13
2023-04-17T04:03:30.662Z,26.53
2023-04-17T04:05:59.037Z,25.43
2023-04-17T04:08:27.075Z,25.57
2023-04-17T04:10:56.681Z,25.37
2023-04-17T04:13:24.880Z,26.97
2023-04-17T04:15:52.974Z,26.90
2023-04-17T04:18:22.481Z,26.83
2023-04-17T04:20:50.855Z,26.43
2023-04-17T04:23:21.185Z,26.50
2023-04-17T04:25:49.801Z,28.40
2023-04-17T04:28:18.632Z,28.83
2023-04-17T04:30:51.135Z,28.13
2023-04-17T04:33:20.658Z,28.00
2023-04-17T04:35:52.081Z,27.80
2023-04-17T04:38:20.240Z,27.53
2023-04-17T04:40:52.751Z,27.57
2023-04-17T04:43:22.493Z,28.43
2023-04-17T04:45:51.032Z,27.43
2023-04-17T04:48:19.055Z,26.80
2023-04-17T04:50:47.450Z,28.17
2023-04-17T04:53:17.053Z,25.50
2023-04-17T04:55:45.187Z,26.67
2023-04-17T04:58:13.501Z,26.73
2023-04-17T05:00:42.026Z,26.40
2023-04-17T05:03:10.620Z,25.77
2023-04-17T05:05:38.858Z,25.30
2023-04-17T05:08:07.485Z,26.70
2023-04-17T05:10:37.158Z,25.70
2023-04-17T05:13:05.259Z,26.07
2023-04-17T05:15:33.362Z,26.30
2023-04-17T05:18:01.574Z,25.27
2023-04-17T05:20:29.982Z,26.80
2023-04-17T05:22:58.660Z,28.17
2023-04-17T05:25:27.096Z,27.10
2023-04-17T05:27:58.536Z,26.77
2023-04-17T05:30:26.827Z,27.60
2023-04-17T05:32:55.290Z,27.80
2023-04-17T05:35:23.521Z,28.40
2023-04-17T05:37:51.828Z,27.90
2023-04-17T05:40:20.092Z,29.00
2023-04-17T05:42:48.229Z,28.07
2023-04-17T05:45:19.346Z,28.90
2023-04-17T05:47:47.466Z,29.00
2023-04-17T05:50:15.691Z,29.07
2023-04-17T05:52:43.728Z,29.53
2023-04-17T05:55:11.934Z,30.43
2023-04-17T05:57:40.105Z,29.93
2023-04-17T06:00:13.178Z,29.27
2023-04-17T06:02:44.106Z,29.73
2023-04-17T06:05:12.500Z,28.73
2023-04-17T06:07:40.947Z,29.10
2023-04-17T06:10:10.111Z,28.90
2023-04-17T06:12:38.740Z,28.10
2023-04-17T06:15:09.477Z,28.60
2023-04-17T06:17:38.347Z,27.67
2023-04-17T06:20:10.615Z,28.87
2023-04-17T06:22:39.333Z,29.07
2023-04-17T06:25:08.631Z,28.93
2023-04-17T06:27:38.766Z,28.50
2023-04-17T06:30:07.973Z,28.40
2023-04-17T06:32:36.283Z,27.93
2023-04-17T06:35:04.558Z,28.57
2023-04-17T06:37:34.032Z,27.07
2023-04-17T06:40:02.141Z,27.70
2023-04-17T06:42:30.273Z,27.73
2023-04-17T06:44:58.307Z,27.73
2023-04-17T06:47:26.785Z,25.90
2023-04-17T06:49:58.124Z,24.87
2023-04-17T06:52:26.334Z,25.43
2023-04-17T06:54:56.726Z,26.03
2023-04-17T06:57:24.773Z,26.23
2023-04-17T06:59:52.884Z,26.03
2023-04-17T07:02:21.252Z,25.73
2023-04-17T07:04:50.457Z,25.27
2023-04-17T07:07:18.599Z,25.77
2023-04-17T07:09:48.258Z,25.23
2023-04-17T07:12:18.001Z,25.77
2023-04-17T07:14:46.336Z,25.10
2023-04-17T07:17:14.768Z,25.17
2023-04-17T07:19:42.966Z,24.80
2023-04-17T07:22:11.309Z,24.87
2023-04-17T07:24:39.336Z,24.80
2023-04-17T07:27:08.117Z,24.13
2023-04-17T07:29:38.028Z,23.50
2023-04-17T07:32:07.087Z,22.80
2023-04-17T07:34:35.774Z,23.07
2023-04-17T07:37:04.100Z,22.63
2023-04-17T07:39:32.282Z,21.10
2023-04-17T07:42:03.203Z,20.03
2023-04-17T07:44:31.208Z,20.83
2023-04-17T07:47:00.914Z,20.50
2023-04-17T07:49:29.131Z,21.40
2023-04-17T07:51:57.443Z,20.43
2023-04-17T07:54:25.826Z,19.57
2023-04-17T07:56:58.375Z,19.70
2023-04-17T07:59:26.521Z,18.67
2023-04-17T08:01:55.044Z,18.67
2023-04-17T08:04:25.292Z,18.40
2023-04-17T08:06:53.621Z,17.43
2023-04-17T08:09:22.762Z,16.47
2023-04-17T08:11:57.494Z,16.33
2023-04-17T08:14:26.231Z,16.37
2023-04-17T08:16:54.511Z,17.10
2023-04-17T08:19:22.595Z,16.43
2023-04-17T08:21:52.336Z,16.20
2023-04-17T08:24:20.601Z,16.63
2023-04-17T08:26:49.246Z,15.53
2023-04-17T08:29:18.451Z,15.03
2023-04-17T08:31:47.659Z,15.20
2023-04-17T08:34:15.870Z,15.00
2023-04-17T08:36:44.184Z,15.10
2023-04-17T08:39:15.413Z,14.37
2023-04-17T08:41:50.591Z,14.57
2023-04-17T08:44:21.665Z,14.37
2023-04-17T08:46:51.006Z,12.83
2023-04-17T08:49:21.434Z,11.50
2023-04-17T08:51:49.789Z,10.93
2023-04-17T08:54:19.822Z,11.43
2023-04-17T08:56:48.427Z,11.83
2023-04-17T08:59:17.261Z,9.83
2023-04-17T09:02:04.431Z,9.60
2023-04-17T09:04:38.356Z,10.33
2023-04-17T09:07:06.821Z,10.13
2023-04-17T09:09:53.907Z,10.33
2023-04-17T09:12:24.152Z,9.13
2023-04-17T09:14:52.878Z,7.97
2023-04-17T09:17:23.076Z,8.53
2023-04-17T09:20:07.935Z,9.03
2023-04-17T09:22:37.540Z,8.83
2023-04-17T09:25:17.540Z,7.87
2023-04-17T09:27:45.886Z,8.47
2023-04-17T09:30:15.245Z,8.80
2023-04-17T09:32:44.252Z,8.67
2023-04-17T09:35:14.916Z,8.13
2023-04-17T09:37:53.199Z,7.70
2023-04-17T09:40:25.201Z,8.17
2023-04-17T09:43:01.272Z,7.97
2023-04-17T09:45:35.580Z,7.37
2023-04-17T09:48:08.146Z,7.50
2023-04-17T09:50:38.638Z,7.43
2023-04-17T09:53:09.688Z,7.23
2023-04-17T09:55:43.681Z,6.90
2023-04-17T09:58:12.628Z,6.60
2023-04-17T10:00:44.276Z,6.40
2023-04-17T10:03:18.348Z,6.33
2023-04-17T10:05:47.547Z,5.30
2023-04-17T10:08:16.591Z,5.50
2023-04-17T10:10:46.780Z,5.37
2023-04-17T10:13:15.170Z,6.07
2023-04-17T10:15:43.407Z,6.43
2023-04-17T10:18:23.685Z,6.20
2023-04-17T10:20:54.020Z,6.20
2023-04-17T10:23:31.497Z,6.20
2023-04-17T10:26:42.535Z,6.80
2023-04-17T10:29:12.962Z,6.30
2023-04-17T10:32:19.868Z,6.20
2023-04-17T10:34:48.476Z,6.23
2023-04-17T10:37:19.480Z,6.07
2023-04-17T10:39:52.725Z,5.90
2023-04-17T10:42:21.683Z,6.70
2023-04-17T10:44:56.984Z,6.23
2023-04-17T10:47:32.795Z,6.20
2023-04-17T10:50:05.544Z,6.20
2023-04-17T10:52:42.252Z,6.70
2023-04-17T10:55:13.702Z,18.70
2023-04-17T10:57:56.413Z,7.17
2023-04-17T11:00:33.455Z,6.77
2023-04-17T11:03:03.729Z,6.40
2023-04-17T11:05:32.824Z,6.40
2023-04-17T11:08:01.222Z,6.20
2023-04-17T11:10:29.541Z,6.20
2023-04-17T11:12:57.965Z,6.30
2023-04-17T11:15:31.718Z,6.90
2023-04-17T11:18:02.434Z,5.73
2023-04-17T11:20:32.115Z,5.87
2023-04-17T11:23:02.786Z,5.40
2023-04-17T11:25:33.985Z,5.63
2023-04-17T11:28:04.829Z,6.00
2023-04-17T11:30:35.706Z,6.20
2023-04-17T11:33:06.344Z,5.60
2023-04-17T11:35:36.164Z,4.63
2023-04-17T11:38:21.063Z,5.43
2023-04-17T11:40:52.759Z,5.20
2023-04-17T11:43:22.368Z,5.03
2023-04-17T11:45:53.984Z,4.87
2023-04-17T11:48:26.188Z,5.50
2023-04-17T11:50:57.491Z,5.10
2023-04-17T11:53:27.417Z,5.33
2023-04-17T11:56:15.960Z,5.30
2023-04-17T11:58:51.743Z,5.37
2023-04-17T12:01:24.914Z,4.87
2023-04-17T12:03:53.946Z,5.03
2023-04-17T12:06:22.662Z,4.93
2023-04-17T12:08:52.438Z,4.60
2023-04-17T12:11:30.851Z,4.47
2023-04-17T12:14:01.023Z,4.40
2023-04-17T12:16:31.714Z,4.60
2023-04-17T12:19:00.015Z,4.53
2023-04-17T12:21:28.740Z,4.30
2023-04-17T12:23:57.237Z,4.53
2023-04-17T12:26:26.315Z,4.27
2023-04-17T12:28:58.104Z,4.30
2023-04-17T12:31:26.210Z,4.67
2023-04-17T12:33:56.130Z,3.73
2023-04-17T12:36:24.251Z,4.23
2023-04-17T12:38:53.018Z,4.00
2023-04-17T12:41:21.749Z,3.80
2023-04-17T12:43:50.553Z,4.23
2023-04-17T12:46:19.113Z,4.13
2023-04-17T12:48:47.601Z,4.30
2023-04-17T12:51:17.289Z,4.53
2023-04-17T12:53:45.640Z,4.70
2023-04-17T12:56:14.309Z,3.83
2023-04-17T12:58:42.429Z,4.00
2023-04-17T13:01:10.672Z,4.30
2023-04-17T13:03:39.162Z,4.10
2023-04-17T13:06:07.888Z,4.27
2023-04-17T13:08:37.940Z,4.40
2023-04-17T13:11:06.591Z,4.20
2023-04-17T13:13:34.660Z,4.07
2023-04-17T13:16:03.346Z,4.00
2023-04-17T13:18:31.847Z,3.70
2023-04-17T13:20:59.980Z,4.03
2023-04-17T13:23:28.281Z,4.10
2023-04-17T13:25:58.038Z,4.27
2023-04-17T13:28:26.278Z,4.03
2023-04-17T13:30:55.742Z,3.47
2023-04-17T13:33:24.111Z,3.70
2023-04-17T13:35:53.530Z,3.97
2023-04-17T13:38:21.616Z,3.80
2023-04-17T13:40:50.217Z,3.70
2023-04-17T13:43:19.960Z,3.80
2023-04-17T13:45:49.818Z,4.37
2023-04-17T13:48:17.990Z,3.77
2023-04-17T13:50:46.255Z,3.90
2023-04-17T13:53:14.585Z,3.67
2023-04-17T13:55:44.270Z,3.80
2023-04-17T13:58:13.472Z,3.63
2023-04-17T14:00:48.749Z,3.70
2023-04-17T14:03:16.978Z,3.73
2023-04-17T14:05:46.306Z,3.87
2023-04-17T14:08:14.455Z,4.20
2023-04-17T14:10:42.502Z,5.07
2023-04-17T14:13:12.187Z,4.67
2023-04-17T14:15:41.983Z,4.33
2023-04-17T14:18:12.067Z,4.03
2023-04-17T14:20:40.118Z,3.97
2023-04-17T14:23:08.346Z,3.93
2023-04-17T14:25:36.474Z,3.80
2023-04-17T14:28:04.757Z,3.87
2023-04-17T14:30:33.008Z,5.17
2023-04-17T14:33:01.393Z,3.90
2023-04-17T14:35:33.217Z,4.37
2023-04-17T14:38:05.048Z,4.10
2023-04-17T14:40:33.310Z,4.20
2023-04-17T14:43:01.489Z,4.67
2023-04-17T14:45:29.804Z,4.87
2023-04-17T14:47:58.222Z,4.80
2023-04-17T14:50:26.471Z,4.50
2023-04-17T14:52:58.661Z,4.70
2023-04-17T14:55:27.251Z,4.23
2023-04-17T14:57:56.101Z,4.67
2023-04-17T15:00:24.544Z,4.37
2023-04-17T15:02:53.029Z,4.07
2023-04-17T15:05:22.769Z,4.73
2023-04-17T15:07:51.414Z,4.40
2023-04-17T15:10:21.340Z,4.20
2023-04-17T15:12:49.447Z,4.53
2023-04-17T15:15:17.682Z,3.80
2023-04-17T15:17:45.810Z,5.10
2023-04-17T15:20:15.019Z,5.13
2023-04-17T15:22:44.048Z,4.90
2023-04-17T15:25:12.258Z,4.73
2023-04-17T15:27:41.726Z,4.97
2023-04-17T15:30:11.310Z,5.03
2023-04-17T15:32:41.852Z,4.60
2023-04-17T15:35:10.600Z,5.10
2023-04-17T15:37:39.983Z,5.20
2023-04-17T15:40:09.532Z,4.77
2023-04-17T15:42:38.120Z,5.00
2023-04-17T15:45:11.247Z,5.73
2023-04-17T15:47:39.730Z,5.80
2023-04-17T15:50:09.053Z,5.53
2023-04-17T15:52:37.393Z,5.30
2023-04-17T15:55:06.116Z,6.13
2023-04-17T15:57:34.233Z,5.43
2023-04-17T16:00:02.685Z,6.13
2023-04-17T16:02:32.422Z,6.27
2023-04-17T16:05:00.908Z,6.10
2023-04-17T16:07:29.154Z,6.07
2023-04-17T16:09:57.264Z,5.43
2023-04-17T16:12:25.652Z,6.60
2023-04-17T16:14:53.712Z,6.97
2023-04-17T16:17:21.933Z,6.10
2023-04-17T16:19:51.473Z,7.50
2023-04-17T16:22:20.161Z,7.07
2023-04-17T16:24:48.491Z,6.23
2023-04-17T16:27:16.717Z,7.00
2023-04-17T16:29:45.886Z,7.83
2023-04-17T16:32:14.976Z,6.50
2023-04-17T16:34:43.599Z,6.47
2023-04-17T16:37:14.946Z,6.90
2023-04-17T16:39:43.290Z,6.97
2023-04-17T16:42:11.437Z,6.07
2023-04-17T16:44:39.592Z,6.37
2023-04-17T16:47:13.438Z,6.80
2023-04-17T16:49:42.877Z,7.20
2023-04-17T16:52:13.024Z,6.77
2023-04-17T16:54:41.339Z,7.60
2023-04-17T16:57:10.267Z,7.37
2023-04-17T16:59:38.315Z,7.00
2023-04-17T17:02:07.863Z,6.73
2023-04-17T17:04:36.655Z,7.00
2023-04-17T17:07:04.890Z,7.47
2023-04-17T17:09:34.451Z,7.60
2023-04-17T17:12:02.673Z,7.00
2023-04-17T17:14:32.646Z,7.30
2023-04-17T17:17:00.820Z,7.10
2023-04-17T17:19:30.434Z,6.80
2023-04-17T17:21:59.082Z,6.33
2023-04-17T17:24:28.793Z,7.17
2023-04-17T17:26:58.654Z,7.40
2023-04-17T17:29:27.074Z,6.83
2023-04-17T17:31:56.875Z,7.50
2023-04-17T17:34:26.987Z,7.67
2023-04-17T17:36:55.622Z,7.60
2023-04-17T17:39:23.770Z,7.30
2023-04-17T17:41:52.202Z,8.10
2023-04-17T17:44:22.035Z,7.67
2023-04-17T17:46:51.452Z,7.73
2023-04-17T17:49:19.738Z,7.87
2023-04-17T17:51:48.244Z,7.53
2023-04-17T17:54:16.510Z,8.00
2023-04-17T17:56:44.881Z,8.20
2023-04-17T17:59:13.140Z,7.97
2023-04-17T18:01:42.649Z,7.47
2023-04-17T18:04:11.401Z,8.23
2023-04-17T18:06:41.178Z,8.70
2023-04-17T18:09:09.821Z,7.80
2023-04-17T18:11:38.394Z,8.70
2023-04-17T18:14:06.969Z,8.13
2023-04-17T18:16:37.276Z,8.87
2023-04-17T18:19:07.057Z,8.07
2023-04-17T18:21:35.420Z,7.83
2023-04-17T18:24:03.725Z,7.70
2023-04-17T18:26:33.664Z,8.00
2023-04-17T18:29:01.754Z,8.13
2023-04-17T18:31:30.122Z,8.57
2023-04-17T18:34:02.380Z,7.87
2023-04-17T18:36:32.267Z,7.90
2023-04-17T18:39:00.646Z,8.30
2023-04-17T18:41:28.788Z,8.70
2023-04-17T18:43:57.127Z,8.07
2023-04-17T18:46:27.206Z,7.83
2023-04-17T18:48:55.569Z,8.83
2023-04-17T18:51:23.624Z,8.33
2023-04-17T18:53:53.547Z,7.90
2023-04-17T18:56:22.928Z,7.70
2023-04-17T18:58:51.364Z,8.10
2023-04-17T19:01:19.729Z,8.83
2023-04-17T19:03:48.256Z,8.33
2023-04-17T19:06:16.522Z,8.73
2023-04-17T19:08:44.686Z,9.17
2023-04-17T19:11:14.192Z,9.17
2023-04-17T19:13:42.902Z,14.47
2023-04-17T19:16:11.499Z,10.30
2023-04-17T19:18:39.995Z,8.73
2023-04-17T19:21:08.470Z,11.90
2023-04-17T19:23:38.429Z,10.70
2023-04-17T19:26:06.841Z,13.33
2023-04-17T19:28:37.323Z,11.77
2023-04-17T19:31:06.434Z,13.77
2023-04-17T19:33:35.731Z,13.10
2023-04-17T19:36:04.451Z,11.67
2023-04-17T19:38:33.016Z,10.13
2023-04-17T19:41:17.466Z,9.83
2023-04-17T19:43:47.565Z,11.33
2023-04-17T19:46:16.077Z,9.33
2023-04-17T19:48:45.000Z,9.57
2023-04-17T19:51:14.554Z,10.77
2023-04-17T19:53:45.616Z,13.87
2023-04-17T19:56:16.058Z,10.33
2023-04-17T19:58:44.447Z,9.33
2023-04-17T20:01:14.408Z,10.50
2023-04-17T20:03:46.413Z,9.17
2023-04-17T20:06:15.465Z,8.53
2023-04-17T20:08:43.786Z,8.43
2023-04-17T20:11:12.368Z,8.20
2023-04-17T20:13:40.726Z,7.77
2023-04-17T20:16:11.255Z,7.57
2023-04-17T20:18:41.884Z,8.00
2023-04-17T20:21:10.026Z,7.37
2023-04-17T20:23:38.091Z,7.27
2023-04-17T20:26:08.257Z,7.20
2023-04-17T20:28:39.108Z,6.90
2023-04-17T20:31:08.808Z,7.30
2023-04-17T20:33:37.345Z,7.33
2023-04-17T20:36:08.908Z,8.10
2023-04-17T20:38:37.599Z,8.20
2023-04-17T20:41:08.006Z,7.73
2023-04-17T20:43:37.005Z,7.80
2023-04-17T20:46:07.117Z,7.20
2023-04-17T20:48:35.680Z,6.23
2023-04-17T20:51:09.441Z,6.23
2023-04-17T20:53:37.690Z,5.93
2023-04-17T20:56:06.066Z,6.57
2023-04-17T20:58:34.506Z,6.83
2023-04-17T21:01:03.400Z,6.77
2023-04-17T21:03:32.494Z,6.93
2023-04-17T21:06:01.232Z,7.00
2023-04-17T21:08:31.255Z,6.73
2023-04-17T21:10:59.390Z,6.40
2023-04-17T21:13:27.976Z,6.40
2023-04-17T21:15:56.174Z,6.97
2023-04-17T21:18:24.187Z,6.53
2023-04-17T21:20:52.247Z,6.40
2023-04-17T21:23:20.649Z,6.23
2023-04-17T21:25:51.981Z,6.77
2023-04-17T21:28:20.134Z,6.40
2023-04-17T21:30:48.410Z,6.87
2023-04-17T21:33:16.868Z,6.30
2023-04-17T21:35:44.956Z,6.50
2023-04-17T21:38:13.946Z,6.37
2023-04-17T21:40:50.873Z,6.67
2023-04-17T21:43:20.941Z,6.50
2023-04-17T21:45:50.133Z,6.80
2023-04-17T21:48:18.479Z,6.83
2023-04-17T21:50:46.885Z,6.47
2023-04-17T21:53:15.284Z,6.07
2023-04-17T21:55:43.426Z,6.27
2023-04-17T21:58:11.449Z,6.37
2023-04-17T22:00:41.154Z,6.87
2023-04-17T22:03:09.483Z,6.67
2023-04-17T22:05:37.808Z,6.33
2023-04-17T22:08:06.425Z,6.40
2023-04-17T22:10:34.751Z,6.53
2023-04-17T22:13:02.947Z,7.10
2023-04-17T22:15:31.377Z,6.67
2023-04-17T22:18:01.108Z,6.60
2023-04-17T22:20:29.241Z,6.73
2023-04-17T22:22:57.426Z,6.50
2023-04-17T22:25:25.867Z,6.23
2023-04-17T22:27:54.052Z,7.03
2023-04-17T22:30:22.650Z,6.27
2023-04-17T22:32:51.243Z,6.50
2023-04-17T22:35:21.074Z,6.37
2023-04-17T22:37:49.344Z,6.90
2023-04-17T22:40:17.598Z,6.13
2023-04-17T22:42:45.881Z,6.87
2023-04-17T22:45:14.061Z,6.13
2023-04-17T22:47:42.179Z,6.13
2023-04-17T22:50:11.162Z,6.90
2023-04-17T22:52:40.998Z,6.87
2023-04-17T22:55:09.984Z,6.73
2023-04-17T22:57:38.287Z,6.87
2023-04-17T23:00:10.603Z,7.23
2023-04-17T23:02:40.647Z,7.30
2023-04-17T23:05:10.514Z,7.33
2023-04-17T23:07:39.568Z,7.03
2023-04-17T23:10:10.100Z,7.60
2023-04-17T23:12:38.020Z,7.20
2023-04-17T23:15:08.468Z,7.77
2023-04-17T23:17:36.900Z,7.47
2023-04-17T23:20:06.667Z,7.23
2023-04-17T23:22:34.891Z,7.87
2023-04-17T23:25:03.076Z,7.23
2023-04-17T23:27:32.920Z,7.50
2023-04-17T23:30:01.125Z,8.13
2023-04-17T23:32:29.387Z,8.00
2023-04-17T23:34:57.613Z,7.43
2023-04-17T23:37:26.096Z,7.07
2023-04-17T23:39:54.238Z,7.80
2023-04-17T23:42:22.460Z,7.43
2023-04-17T23:44:52.190Z,7.53
2023-04-17T23:47:20.294Z,7.73
2023-04-17T23:49:48.786Z,7.83
2023-04-17T23:52:17.116Z,7.87
2023-04-17T23:54:45.050Z,7.83
2023-04-17T23:57:13.362Z,7.40
2023-04-17T23:59:41.468Z,7.90
